Time;durP1;ratioP1;P1;durP2;ratioP2;P2;SDS_P1;SDS_P2;PMS_P1;PMS_P2;Temp;Humidity;BMP_temperature;BMP_pressure;BME280_temperature;BME280_humidity;BME280_pressure;Samples;Min_cycle;Max_cycle;Signal;HPM_P1;HPM_P2
2023/09/11 00:02:15;;;;;;;7.53;3.05;;;;;;;;;;5009931;28;20033;-68
2023/09/11 00:04:41;;;;;;;10.23;3.35;;;;;;;;;;5012173;28;20042;-67
2023/09/11 00:07:07;;;;;;;4.82;2.78;;;;;;;;;;5011828;28;20487;-68
2023/09/11 00:09:32;;;;;;;6.28;3.30;;;;;;;;;;5011153;28;20041;-68
2023/09/11 00:11:58;;;;;;;12.05;3.35;;;;;;;;;;5011063;28;20471;-68
2023/09/11 00:14:24;;;;;;;10.23;3.70;;;;;;;;;;5011441;28;20120;-68
2023/09/11 00:16:50;;;;;;;5.53;3.17;;;;;;;;;;5011167;28;20029;-68
2023/09/11 00:19:16;;;;;;;8.48;3.30;;;;;;;;;;5010900;28;20069;-67
2023/09/11 00:21:43;;;;;;;6.47;3.25;;;;;;;;;;5010995;28;20071;-68
2023/09/11 00:24:08;;;;;;;7.63;3.50;;;;;;;;;;5010661;28;20037;-68
2023/09/11 00:26:34;;;;;;;7.65;3.40;;;;;;;;;;5011272;28;20029;-68
2023/09/11 00:29:00;;;;;;;6.07;3.40;;;;;;;;;;5009915;28;20478;-68
2023/09/11 00:31:26;;;;;;;8.70;3.80;;;;;;;;;;5009222;28;20033;-68
2023/09/11 00:33:52;;;;;;;5.10;3.13;;;;;;;;;;5010627;28;20163;-68
2023/09/11 00:36:18;;;;;;;5.07;3.38;;;;;;;;;;5009632;28;20074;-68
2023/09/11 00:38:47;;;;;;;5.97;3.45;;;;;;;;;;5009603;28;20034;-68
2023/09/11 00:41:13;;;;;;;8.35;4.20;;;;;;;;;;5009025;28;20042;-68
2023/09/11 00:43:39;;;;;;;8.27;4.45;;;;;;;;;;5009974;28;20080;-68
2023/09/11 00:46:05;;;;;;;8.07;4.30;;;;;;;;;;5009655;28;20329;-69
2023/09/11 00:48:32;;;;;;;8.40;3.90;;;;;;;;;;5009601;28;20034;-68
2023/09/11 00:50:58;;;;;;;7.85;3.70;;;;;;;;;;5009085;28;20045;-67
2023/09/11 00:53:25;;;;;;;17.33;4.38;;;;;;;;;;5010954;28;20445;-68
2023/09/11 00:55:52;;;;;;;8.73;4.07;;;;;;;;;;5010196;28;20026;-68
2023/09/11 00:58:18;;;;;;;5.95;3.53;;;;;;;;;;5011267;28;20056;-68
2023/09/11 01:00:47;;;;;;;6.60;3.42;;;;;;;;;;5011018;28;20030;-68
2023/09/11 01:03:14;;;;;;;7.28;3.83;;;;;;;;;;5009951;28;20207;-68
2023/09/11 01:05:41;;;;;;;7.13;3.88;;;;;;;;;;5010830;28;20399;-68
2023/09/11 01:08:08;;;;;;;6.68;3.40;;;;;;;;;;5008784;28;20041;-68
2023/09/11 01:10:35;;;;;;;5.93;3.40;;;;;;;;;;5008808;28;20030;-68
2023/09/11 01:13:02;;;;;;;6.82;3.70;;;;;;;;;;5009074;28;20076;-68
2023/09/11 01:15:35;;;;;;;7.88;3.58;;;;;;;;;;5010689;28;20086;-68
2023/09/11 01:18:22;;;;;;;;;;;;;;;;;;5011121;28;20041;-68
2023/09/11 01:21:27;;;;;;;5.07;3.05;;;;;;;;;;5010108;28;20306;-68
2023/09/11 01:24:05;;;;;;;7.72;3.97;;;;;;;;;;5009078;28;20483;-69
2023/09/11 01:27:04;;;;;;;6.22;3.20;;;;;;;;;;5010224;28;20034;-68
2023/09/11 01:29:38;;;;;;;10.75;3.50;;;;;;;;;;5004789;28;20042;-68
2023/09/11 01:32:07;;;;;;;7.03;3.45;;;;;;;;;;4998941;28;20026;-68
2023/09/11 01:34:33;;;;;;;7.38;3.08;;;;;;;;;;5008256;28;20040;-68
2023/09/11 01:36:59;;;;;;;8.38;3.30;;;;;;;;;;5009426;28;20113;-69
2023/09/11 01:39:25;;;;;;;10.40;3.92;;;;;;;;;;5007570;28;20521;-67
2023/09/11 01:41:54;;;;;;;5.55;3.65;;;;;;;;;;5008445;28;20339;-68
2023/09/11 01:44:27;;;;;;;7.47;3.65;;;;;;;;;;5007676;28;20507;-67
2023/09/11 01:46:56;;;;;;;6.97;3.87;;;;;;;;;;5007560;28;20082;-68
2023/09/11 01:49:25;;;;;;;7.53;3.78;;;;;;;;;;5007458;28;20490;-67
2023/09/11 01:51:52;;;;;;;10.13;3.78;;;;;;;;;;5007153;28;20034;-68
2023/09/11 01:54:20;;;;;;;9.52;4.20;;;;;;;;;;5007415;28;20349;-67
2023/09/11 01:56:47;;;;;;;5.10;3.45;;;;;;;;;;5007390;28;20022;-68
2023/09/11 01:59:16;;;;;;;7.05;3.40;;;;;;;;;;5008896;28;20037;-67
2023/09/11 02:01:44;;;;;;;7.68;3.30;;;;;;;;;;5008829;28;20025;-68
2023/09/11 02:04:10;;;;;;;6.25;3.33;;;;;;;;;;5008883;28;20045;-69
2023/09/11 02:06:35;;;;;;;5.45;3.33;;;;;;;;;;5006430;28;20026;-69
2023/09/11 02:09:02;;;;;;;6.40;3.28;;;;;;;;;;5005202;28;20113;-69
2023/09/11 02:11:28;;;;;;;5.95;2.85;;;;;;;;;;4988872;28;20560;-69
2023/09/11 02:13:54;;;;;;;9.65;3.30;;;;;;;;;;4990370;28;20057;-69
2023/09/11 02:16:20;;;;;;;7.35;3.28;;;;;;;;;;5021767;28;20475;-68
2023/09/11 02:18:46;;;;;;;7.13;3.30;;;;;;;;;;4989005;28;20499;-68
2023/09/11 02:21:11;;;;;;;5.25;3.50;;;;;;;;;;4989973;28;20033;-68
2023/09/11 02:23:37;;;;;;;10.57;3.97;;;;;;;;;;4989017;28;20038;-68
2023/09/11 02:26:03;;;;;;;6.63;3.67;;;;;;;;;;4988752;28;20498;-68
2023/09/11 02:28:31;;;;;;;7.55;3.20;;;;;;;;;;5021585;28;20084;-68
2023/09/11 02:30:57;;;;;;;10.90;3.97;;;;;;;;;;4988609;28;20031;-69
2023/09/11 02:33:23;;;;;;;7.63;3.85;;;;;;;;;;5021424;28;20041;-68
2023/09/11 02:35:54;;;;;;;5.78;3.28;;;;;;;;;;4988781;28;20033;-68
2023/09/11 02:38:21;;;;;;;14.63;4.07;;;;;;;;;;5021640;28;20062;-68
2023/09/11 02:40:46;;;;;;;7.45;3.90;;;;;;;;;;5021408;28;20054;-68
2023/09/11 02:43:12;;;;;;;8.25;3.47;;;;;;;;;;4988783;28;20505;-68
2023/09/11 02:45:38;;;;;;;11.18;3.90;;;;;;;;;;4988427;28;20030;-68
2023/09/11 02:48:04;;;;;;;19.73;4.72;;;;;;;;;;5021140;28;20134;-67
2023/09/11 02:50:31;;;;;;;12.43;3.78;;;;;;;;;;5020278;28;20026;-68
2023/09/11 02:52:56;;;;;;;9.95;3.70;;;;;;;;;;4988931;28;20049;-67
2023/09/11 02:55:22;;;;;;;5.97;3.00;;;;;;;;;;4987285;28;20083;-68
2023/09/11 02:57:48;;;;;;;9.27;3.60;;;;;;;;;;4987508;28;20095;-68
2023/09/11 03:00:14;;;;;;;6.93;3.63;;;;;;;;;;4987384;28;20141;-68
2023/09/11 03:02:41;;;;;;;9.18;3.75;;;;;;;;;;5028074;28;20368;-68
2023/09/11 03:05:07;;;;;;;17.63;4.00;;;;;;;;;;5006803;28;20022;-68
2023/09/11 03:07:33;;;;;;;9.43;4.97;;;;;;;;;;5006844;28;20466;-68
2023/09/11 03:09:59;;;;;;;11.85;4.57;;;;;;;;;;5006969;28;20053;-67
2023/09/11 03:12:27;;;;;;;13.88;4.25;;;;;;;;;;5006910;28;20495;-67
2023/09/11 03:14:53;;;;;;;16.40;4.95;;;;;;;;;;5008993;28;20422;-68
2023/09/11 03:17:19;;;;;;;14.20;4.50;;;;;;;;;;5007466;28;20036;-67
2023/09/11 03:19:44;;;;;;;25.13;6.00;;;;;;;;;;5007523;28;20026;-68
2023/09/11 03:22:10;;;;;;;11.98;4.43;;;;;;;;;;5007487;28;20029;-68
2023/09/11 03:24:36;;;;;;;10.13;4.13;;;;;;;;;;5007738;28;20109;-68
2023/09/11 03:27:02;;;;;;;14.32;4.13;;;;;;;;;;5007828;28;20034;-68
2023/09/11 03:29:28;;;;;;;12.13;4.05;;;;;;;;;;5007449;28;20090;-68
2023/09/11 03:31:54;;;;;;;12.38;3.90;;;;;;;;;;5007080;28;20078;-68
2023/09/11 03:34:20;;;;;;;15.00;3.65;;;;;;;;;;5008699;28;20135;-68
2023/09/11 03:36:47;;;;;;;10.70;3.85;;;;;;;;;;5007187;28;20114;-68
2023/09/11 03:39:13;;;;;;;9.63;3.50;;;;;;;;;;5008586;28;20064;-68
2023/09/11 03:41:39;;;;;;;6.97;3.47;;;;;;;;;;5003627;28;20086;-68
2023/09/11 03:44:05;;;;;;;8.95;3.20;;;;;;;;;;5006445;28;20128;-68
2023/09/11 03:46:31;;;;;;;14.52;3.80;;;;;;;;;;5006368;28;20041;-68
2023/09/11 03:48:57;;;;;;;9.75;3.63;;;;;;;;;;5043337;28;20027;-68
2023/09/11 03:51:24;;;;;;;4.47;2.92;;;;;;;;;;5110462;28;20039;-68
2023/09/11 03:53:50;;;;;;;11.90;3.63;;;;;;;;;;5109773;28;20476;-68
2023/09/11 03:56:20;;;;;;;13.50;4.00;;;;;;;;;;5090352;28;20083;-69
2023/09/11 03:58:47;;;;;;;8.85;3.95;;;;;;;;;;5022336;28;20040;-68
2023/09/11 04:01:16;;;;;;;11.18;3.85;;;;;;;;;;5009377;28;20026;-70
2023/09/11 04:03:42;;;;;;;7.43;3.55;;;;;;;;;;5010032;28;20040;-69
2023/09/11 04:06:09;;;;;;;10.48;4.35;;;;;;;;;;5008420;28;20457;-68
2023/09/11 04:08:35;;;;;;;9.13;3.25;;;;;;;;;;5009273;28;20038;-68
2023/09/11 04:11:03;;;;;;;5.28;3.20;;;;;;;;;;5007253;28;20022;-68
2023/09/11 04:13:29;;;;;;;6.45;3.47;;;;;;;;;;5009733;28;20038;-69
2023/09/11 04:15:55;;;;;;;12.23;3.50;;;;;;;;;;5011856;28;20428;-67
2023/09/11 04:18:21;;;;;;;8.00;3.67;;;;;;;;;;5009165;28;20554;-69
2023/09/11 04:20:47;;;;;;;12.55;4.47;;;;;;;;;;5007110;28;20469;-69
2023/09/11 04:23:12;;;;;;;14.90;4.22;;;;;;;;;;5021612;28;20030;-69
2023/09/11 04:25:42;;;;;;;10.90;3.63;;;;;;;;;;5009398;28;20113;-69
2023/09/11 04:28:08;;;;;;;10.57;3.70;;;;;;;;;;5010415;28;20038;-68
2023/09/11 04:30:34;;;;;;;8.20;3.75;;;;;;;;;;5008295;28;20467;-69
2023/09/11 04:33:00;;;;;;;17.40;4.88;;;;;;;;;;5026731;28;20030;-68
2023/09/11 04:35:26;;;;;;;19.88;4.05;;;;;;;;;;5010648;28;20063;-70
2023/09/11 04:37:52;;;;;;;8.25;3.53;;;;;;;;;;5009459;28;20414;-69
2023/09/11 04:40:18;;;;;;;15.07;3.53;;;;;;;;;;4992829;28;20032;-69
2023/09/11 04:42:47;;;;;;;8.10;2.85;;;;;;;;;;5009303;28;20379;-70
2023/09/11 04:45:13;;;;;;;12.15;3.90;;;;;;;;;;5009350;28;20025;-68
2023/09/11 04:47:39;;;;;;;6.18;3.17;;;;;;;;;;5010314;28;20065;-68
2023/09/11 04:50:05;;;;;;;23.05;4.40;;;;;;;;;;5008956;28;20030;-69
2023/09/11 04:52:31;;;;;;;15.13;4.10;;;;;;;;;;5008893;28;20117;-72
2023/09/11 04:54:56;;;;;;;11.60;4.03;;;;;;;;;;5009110;28;20113;-71
2023/09/11 04:57:23;;;;;;;17.23;4.00;;;;;;;;;;5008665;28;20030;-71
2023/09/11 04:59:50;;;;;;;17.25;3.38;;;;;;;;;;4992247;28;20017;-70
2023/09/11 05:02:16;;;;;;;10.02;2.65;;;;;;;;;;5008729;28;20113;-71
2023/09/11 05:04:42;;;;;;;14.48;3.45;;;;;;;;;;5025119;28;20093;-71
2023/09/11 05:07:08;;;;;;;12.55;4.13;;;;;;;;;;5008724;28;20050;-70
2023/09/11 05:09:34;;;;;;;21.70;5.00;;;;;;;;;;5008113;28;20175;-70
2023/09/11 05:12:00;;;;;;;22.60;4.70;;;;;;;;;;5008032;28;20080;-71
2023/09/11 05:14:26;;;;;;;28.05;5.88;;;;;;;;;;5012530;28;20352;-70
2023/09/11 05:16:52;;;;;;;19.73;3.80;;;;;;;;;;5010278;28;20113;-70
2023/09/11 05:19:18;;;;;;;22.70;4.25;;;;;;;;;;5008047;28;20113;-70
2023/09/11 05:21:44;;;;;;;12.52;3.60;;;;;;;;;;5009736;28;20045;-70
2023/09/11 05:24:10;;;;;;;9.98;3.33;;;;;;;;;;5009431;28;20064;-70
2023/09/11 05:26:38;;;;;;;6.65;3.13;;;;;;;;;;5009468;28;20028;-70
2023/09/11 05:29:04;;;;;;;7.68;3.22;;;;;;;;;;5009520;28;20109;-69
2023/09/11 05:31:30;;;;;;;8.05;3.05;;;;;;;;;;5009822;28;20029;-70
2023/09/11 05:33:56;;;;;;;7.97;3.20;;;;;;;;;;5010495;28;20372;-70
2023/09/11 05:36:22;;;;;;;8.60;3.25;;;;;;;;;;5010776;28;20495;-71
2023/09/11 05:38:47;;;;;;;6.95;3.10;;;;;;;;;;5010889;28;20503;-70
2023/09/11 05:41:14;;;;;;;9.00;3.10;;;;;;;;;;5010230;28;20041;-69
2023/09/11 05:43:42;;;;;;;7.25;2.67;;;;;;;;;;5009585;28;20378;-69
2023/09/11 05:46:08;;;;;;;6.80;2.92;;;;;;;;;;5008828;28;20575;-71
2023/09/11 05:48:35;;;;;;;9.07;3.00;;;;;;;;;;5009333;28;20454;-69
2023/09/11 05:51:01;;;;;;;6.05;2.45;;;;;;;;;;5023572;28;20567;-69
2023/09/11 05:53:27;;;;;;;18.65;4.05;;;;;;;;;;5009389;28;20100;-70
2023/09/11 05:55:54;;;;;;;9.73;2.53;;;;;;;;;;5009178;28;20371;-70
2023/09/11 05:58:20;;;;;;;6.70;2.63;;;;;;;;;;5009136;28;20108;-70
2023/09/11 06:00:46;;;;;;;6.90;2.53;;;;;;;;;;5008885;28;20129;-71
2023/09/11 06:03:11;;;;;;;15.57;3.65;;;;;;;;;;5009053;28;20391;-69
2023/09/11 06:05:39;;;;;;;17.90;4.63;;;;;;;;;;5009296;28;20408;-70
2023/09/11 06:08:06;;;;;;;8.35;2.58;;;;;;;;;;5009076;28;20433;-70
2023/09/11 06:10:33;;;;;;;14.15;3.30;;;;;;;;;;5008849;28;20029;-71
2023/09/11 06:13:00;;;;;;;14.93;6.32;;;;;;;;;;5007599;28;20018;-71
2023/09/11 06:15:26;;;;;;;7.60;2.58;;;;;;;;;;5009227;28;20038;-70
2023/09/11 06:17:52;;;;;;;15.32;3.10;;;;;;;;;;5008113;28;20022;-68
2023/09/11 06:20:19;;;;;;;8.48;2.50;;;;;;;;;;5008452;28;20066;-69
2023/09/11 06:22:45;;;;;;;6.85;2.53;;;;;;;;;;5006856;28;20421;-70
2023/09/11 06:25:11;;;;;;;11.52;2.45;;;;;;;;;;5008134;28;20109;-69
2023/09/11 06:27:37;;;;;;;10.73;2.30;;;;;;;;;;5008123;28;20506;-69
2023/09/11 06:30:06;;;;;;;8.13;2.00;;;;;;;;;;5007950;28;20488;-70
2023/09/11 06:32:32;;;;;;;17.63;3.85;;;;;;;;;;5008147;28;20458;-69
2023/09/11 06:34:59;;;;;;;10.15;2.28;;;;;;;;;;5006232;28;20038;-70
2023/09/11 06:37:25;;;;;;;4.05;2.03;;;;;;;;;;5006719;28;20433;-70
2023/09/11 06:39:52;;;;;;;17.88;2.95;;;;;;;;;;5006011;28;20026;-70
2023/09/11 06:42:22;;;;;;;13.18;2.63;;;;;;;;;;5021294;28;20033;-70
2023/09/11 06:44:51;;;;;;;5.97;2.40;;;;;;;;;;5006768;28;20399;-70
2023/09/11 06:47:17;;;;;;;8.25;2.03;;;;;;;;;;5007005;28;20021;-71
2023/09/11 06:49:43;;;;;;;5.78;2.03;;;;;;;;;;5007974;28;20109;-71
2023/09/11 06:52:09;;;;;;;7.35;1.63;;;;;;;;;;5022630;28;20162;-69
2023/09/11 06:54:35;;;;;;;7.43;2.05;;;;;;;;;;5007706;28;20033;-69
2023/09/11 06:57:01;;;;;;;6.35;2.10;;;;;;;;;;5007797;28;20060;-69
2023/09/11 06:59:27;;;;;;;9.70;1.83;;;;;;;;;;5007798;28;20479;-69
2023/09/11 07:01:53;;;;;;;6.22;2.03;;;;;;;;;;5008235;28;20028;-69
2023/09/11 07:04:20;;;;;;;6.32;1.98;;;;;;;;;;5008079;28;20479;-70
2023/09/11 07:06:46;;;;;;;7.38;2.15;;;;;;;;;;5007638;28;20046;-69
2023/09/11 07:09:12;;;;;;;6.00;2.13;;;;;;;;;;5010662;28;20564;-68
2023/09/11 07:11:38;;;;;;;9.52;2.40;;;;;;;;;;5008195;28;20046;-69
2023/09/11 07:14:05;;;;;;;4.53;1.90;;;;;;;;;;5008422;28;20045;-70
2023/09/11 07:16:31;;;;;;;8.27;1.80;;;;;;;;;;5007991;28;20105;-70
2023/09/11 07:18:58;;;;;;;12.10;2.65;;;;;;;;;;5008019;28;20038;-69
2023/09/11 07:21:24;;;;;;;7.78;2.00;;;;;;;;;;5007517;28;20018;-67
2023/09/11 07:23:49;;;;;;;5.55;1.85;;;;;;;;;;5007627;28;20444;-69
2023/09/11 07:26:15;;;;;;;8.90;3.90;;;;;;;;;;5007762;28;20038;-70
2023/09/11 07:28:54;;;;;;;11.13;2.20;;;;;;;;;;5010117;28;20041;-71
2023/09/11 07:31:20;;;;;;;9.60;2.20;;;;;;;;;;5007522;28;20069;-73
2023/09/11 07:33:46;;;;;;;8.45;1.90;;;;;;;;;;5008585;28;20029;-69
2023/09/11 07:36:13;;;;;;;8.05;1.60;;;;;;;;;;5011491;28;20026;-68
2023/09/11 07:38:44;;;;;;;9.25;1.40;;;;;;;;;;5011544;28;20029;-68
2023/09/11 07:41:14;;;;;;;5.10;1.85;;;;;;;;;;5011272;28;20478;-68
2023/09/11 07:43:40;;;;;;;5.68;1.45;;;;;;;;;;5025646;28;20055;-69
2023/09/11 07:46:06;;;;;;;4.10;1.20;;;;;;;;;;5011152;28;20101;-69
2023/09/11 07:48:32;;;;;;;6.03;1.95;;;;;;;;;;5011119;28;20034;-69
2023/09/11 07:50:57;;;;;;;7.53;1.90;;;;;;;;;;5010872;28;20138;-70
2023/09/11 07:53:23;;;;;;;6.20;1.80;;;;;;;;;;5011005;28;20178;-71
2023/09/11 07:55:51;;;;;;;3.33;1.52;;;;;;;;;;5010753;28;20026;-69
2023/09/11 07:58:18;;;;;;;6.85;1.65;;;;;;;;;;5010168;28;20083;-70
2023/09/11 08:00:44;;;;;;;5.97;1.40;;;;;;;;;;5010913;28;20054;-71
2023/09/11 08:03:10;;;;;;;2.53;1.20;;;;;;;;;;5010907;28;20040;-70
2023/09/11 08:05:35;;;;;;;4.38;1.30;;;;;;;;;;5014193;28;20029;-70
2023/09/11 08:08:02;;;;;;;5.97;1.60;;;;;;;;;;5014491;28;20037;-71
2023/09/11 08:10:29;;;;;;;3.63;1.30;;;;;;;;;;5010740;28;20210;-71
2023/09/11 08:12:55;;;;;;;5.13;1.50;;;;;;;;;;5011020;28;20033;-70
2023/09/11 08:15:22;;;;;;;6.07;1.70;;;;;;;;;;5010818;28;20448;-69
2023/09/11 08:17:48;;;;;;;7.63;1.70;;;;;;;;;;5011268;28;20152;-71
2023/09/11 08:20:14;;;;;;;6.60;1.60;;;;;;;;;;5010103;28;20535;-73
2023/09/11 08:22:41;;;;;;;7.80;1.40;;;;;;;;;;5010165;28;20042;-70
2023/09/11 08:25:11;;;;;;;6.20;1.45;;;;;;;;;;5010884;28;20428;-70
2023/09/11 08:27:36;;;;;;;5.10;1.52;;;;;;;;;;5010347;28;20049;-71
2023/09/11 08:30:04;;;;;;;3.75;1.50;;;;;;;;;;5010432;28;20403;-70
2023/09/11 08:32:30;;;;;;;6.32;1.60;;;;;;;;;;5010080;28;20060;-70
2023/09/11 08:34:55;;;;;;;5.15;1.38;;;;;;;;;;5010178;28;20022;-69
2023/09/11 08:37:24;;;;;;;5.88;1.50;;;;;;;;;;5010486;28;20049;-70
2023/09/11 08:39:50;;;;;;;3.35;1.75;;;;;;;;;;5010276;28;20022;-70
2023/09/11 08:42:17;;;;;;;4.18;1.50;;;;;;;;;;5010564;28;20117;-69
2023/09/11 08:44:43;;;;;;;8.30;1.90;;;;;;;;;;5006792;28;20037;-70
2023/09/11 08:47:12;;;;;;;3.13;1.20;;;;;;;;;;5009524;28;20125;-70
2023/09/11 08:49:43;;;;;;;3.88;1.35;;;;;;;;;;5009893;28;20079;-70
2023/09/11 08:52:13;;;;;;;4.80;1.40;;;;;;;;;;5009940;28;20038;-71
2023/09/11 08:54:43;;;;;;;6.07;1.23;;;;;;;;;;5010168;28;20026;-71
2023/09/11 08:57:14;;;;;;;4.93;1.70;;;;;;;;;;5025615;28;20094;-70
2023/09/11 08:59:44;;;;;;;4.10;1.45;;;;;;;;;;5009962;28;20046;-70
2023/09/11 09:02:11;;;;;;;6.72;1.42;;;;;;;;;;5008932;28;20025;-70
2023/09/11 09:04:40;;;;;;;2.92;1.30;;;;;;;;;;5008874;28;20037;-70
2023/09/11 09:07:07;;;;;;;6.53;1.52;;;;;;;;;;5010512;28;20081;-70
2023/09/11 09:09:34;;;;;;;8.23;1.52;;;;;;;;;;5009253;28;20147;-70
2023/09/11 09:12:02;;;;;;;4.07;1.55;;;;;;;;;;5009799;28;20038;-69
2023/09/11 09:14:30;;;;;;;4.63;1.42;;;;;;;;;;5010079;28;20034;-70
2023/09/11 09:16:56;;;;;;;7.90;1.85;;;;;;;;;;5010207;28;20125;-69
2023/09/11 09:19:22;;;;;;;5.38;2.03;;;;;;;;;;5008845;28;20044;-70
2023/09/11 09:22:18;;;;;;;7.07;1.50;;;;;;;;;;5010542;28;20045;-70
2023/09/11 09:24:50;;;;;;;5.80;1.50;;;;;;;;;;5030801;28;20050;-71
2023/09/11 09:27:17;;;;;;;4.88;1.60;;;;;;;;;;4992705;28;20113;-70
2023/09/11 09:29:43;;;;;;;7.15;1.50;;;;;;;;;;5010100;28;20129;-70
2023/09/11 09:32:10;;;;;;;3.30;1.52;;;;;;;;;;5010064;28;20061;-71
2023/09/11 09:34:38;;;;;;;6.65;1.90;;;;;;;;;;5009800;28;20437;-70
2023/09/11 09:37:04;;;;;;;6.15;1.50;;;;;;;;;;5009670;28;20038;-70
2023/09/11 09:39:33;;;;;;;7.60;2.03;;;;;;;;;;5009398;28;20033;-70
2023/09/11 09:42:07;;;;;;;4.80;1.58;;;;;;;;;;5009476;28;20034;-70
2023/09/11 09:44:36;;;;;;;4.50;1.88;;;;;;;;;;5009622;28;20034;-69
2023/09/11 09:47:15;;;;;;;5.07;1.85;;;;;;;;;;5009679;28;20029;-69
2023/09/11 09:49:47;;;;;;;7.93;1.70;;;;;;;;;;5009896;28;20077;-70
2023/09/11 09:52:18;;;;;;;6.10;1.70;;;;;;;;;;5009041;28;20390;-70
2023/09/11 09:54:54;;;;;;;6.50;1.70;;;;;;;;;;5025009;28;20046;-70
2023/09/11 09:57:23;;;;;;;6.55;2.00;;;;;;;;;;5008764;28;20037;-70
2023/09/11 09:59:52;;;;;;;7.53;2.15;;;;;;;;;;5009770;28;20030;-70
2023/09/11 10:02:29;;;;;;;6.97;2.00;;;;;;;;;;5024878;28;20049;-70
2023/09/11 10:04:56;;;;;;;4.38;1.50;;;;;;;;;;5009403;28;20042;-72
2023/09/11 10:07:39;;;;;;;6.25;1.73;;;;;;;;;;5009359;28;20113;-71
2023/09/11 10:10:36;;;;;;;8.27;1.77;;;;;;;;;;5008678;28;20034;-71
2023/09/11 10:13:07;;;;;;;7.93;1.70;;;;;;;;;;5008231;28;20029;-71
2023/09/11 10:15:38;;;;;;;6.68;1.75;;;;;;;;;;5009193;28;20034;-72
2023/09/11 10:18:05;;;;;;;4.53;1.70;;;;;;;;;;5009442;28;20063;-72
2023/09/11 10:20:32;;;;;;;4.97;1.98;;;;;;;;;;5009949;28;20113;-71
2023/09/11 10:23:05;;;;;;;7.18;1.88;;;;;;;;;;5009748;28;20129;-72
2023/09/11 10:25:38;;;;;;;4.32;1.70;;;;;;;;;;5009285;28;20441;-72
2023/09/11 10:28:07;;;;;;;6.15;1.88;;;;;;;;;;5009778;28;20030;-72
2023/09/11 10:30:40;;;;;;;2.97;1.60;;;;;;;;;;5008926;28;20470;-71
2023/09/11 10:33:12;;;;;;;4.65;1.60;;;;;;;;;;5009258;28;20090;-71
2023/09/11 10:35:40;;;;;;;4.45;1.80;;;;;;;;;;5008899;28;20045;-71
2023/09/11 10:38:08;;;;;;;3.83;1.95;;;;;;;;;;5009044;28;20032;-71
2023/09/11 10:40:37;;;;;;;4.47;1.80;;;;;;;;;;5008503;28;20044;-72
2023/09/11 10:43:03;;;;;;;9.68;1.50;;;;;;;;;;5008470;28;20072;-71
2023/09/11 10:45:34;;;;;;;4.03;1.60;;;;;;;;;;5009011;28;20439;-72
2023/09/11 10:48:01;;;;;;;6.43;1.85;;;;;;;;;;5008713;28;20418;-70
2023/09/11 10:50:48;;;;;;;10.13;1.85;;;;;;;;;;5008654;28;20076;-71
2023/09/11 10:53:14;;;;;;;4.07;2.10;;;;;;;;;;5009035;28;20133;-71
2023/09/11 10:55:40;;;;;;;9.27;2.03;;;;;;;;;;5008874;28;20155;-72
2023/09/11 10:58:07;;;;;;;3.90;1.52;;;;;;;;;;5008808;28;20151;-71
2023/09/11 11:00:39;;;;;;;4.47;1.63;;;;;;;;;;5008572;28;20030;-70
2023/09/11 11:03:05;;;;;;;7.40;1.92;;;;;;;;;;5008758;28;20334;-71
2023/09/11 11:05:34;;;;;;;8.38;1.98;;;;;;;;;;5008961;28;20034;-70
2023/09/11 11:08:01;;;;;;;4.88;1.85;;;;;;;;;;5009170;28;20038;-70
2023/09/11 11:10:27;;;;;;;5.00;1.88;;;;;;;;;;5012064;28;20029;-71
2023/09/11 11:13:11;;;;;;;4.43;1.45;;;;;;;;;;5010896;28;20034;-71
2023/09/11 11:15:37;;;;;;;6.32;2.20;;;;;;;;;;5011938;28;20038;-71
2023/09/11 11:18:33;;;;;;;6.63;1.80;;;;;;;;;;5011707;28;20026;-71
2023/09/11 11:20:59;;;;;;;3.53;1.63;;;;;;;;;;5024305;28;20044;-72
2023/09/11 11:23:33;;;;;;;4.95;2.25;;;;;;;;;;5011705;28;20026;-70
2023/09/11 11:26:06;;;;;;;3.60;1.98;;;;;;;;;;5011652;28;20042;-70
2023/09/11 11:28:40;;;;;;;4.72;2.00;;;;;;;;;;5011749;28;20494;-70
2023/09/11 11:31:08;;;;;;;6.03;1.90;;;;;;;;;;5012048;28;20029;-71
2023/09/11 11:33:40;;;;;;;4.28;1.88;;;;;;;;;;5012399;28;20026;-71
2023/09/11 11:36:07;;;;;;;3.85;1.80;;;;;;;;;;5011926;28;20066;-69
2023/09/11 11:38:34;;;;;;;5.93;1.88;;;;;;;;;;5011795;28;20029;-71
2023/09/11 11:41:02;;;;;;;7.60;2.20;;;;;;;;;;5011162;28;20033;-70
2023/09/11 11:43:29;;;;;;;4.32;1.60;;;;;;;;;;5011438;28;20021;-71
2023/09/11 11:45:56;;;;;;;6.32;1.60;;;;;;;;;;5010488;28;20433;-71
2023/09/11 11:48:26;;;;;;;4.32;1.92;;;;;;;;;;5011576;28;20026;-70
2023/09/11 11:50:51;;;;;;;6.85;1.90;;;;;;;;;;5010558;28;20501;-70
2023/09/11 11:53:22;;;;;;;8.13;1.73;;;;;;;;;;5012646;28;20034;-71
2023/09/11 11:55:56;;;;;;;7.30;1.80;;;;;;;;;;5010507;28;20488;-71
2023/09/11 11:58:22;;;;;;;6.75;1.70;;;;;;;;;;5011256;28;20034;-71
2023/09/11 12:01:04;;;;;;;4.78;1.40;;;;;;;;;;5010354;28;20639;-69
2023/09/11 12:03:45;;;;;;;4.75;1.70;;;;;;;;;;5011385;28;20038;-71
2023/09/11 12:06:11;;;;;;;7.20;1.52;;;;;;;;;;5011123;28;20033;-71
2023/09/11 12:08:37;;;;;;;7.47;1.80;;;;;;;;;;5011047;28;20524;-71
2023/09/11 12:11:07;;;;;;;3.55;1.50;;;;;;;;;;4993419;28;20111;-70
2023/09/11 12:13:33;;;;;;;3.55;1.48;;;;;;;;;;5010912;28;20042;-71
2023/09/11 12:16:01;;;;;;;5.40;1.90;;;;;;;;;;5011406;28;20098;-71
2023/09/11 12:18:29;;;;;;;6.20;1.55;;;;;;;;;;5025763;28;20089;-70
2023/09/11 12:20:59;;;;;;;6.10;2.03;;;;;;;;;;5009973;28;20439;-71
2023/09/11 12:23:25;;;;;;;7.93;3.33;;;;;;;;;;5010745;28;20037;-71
2023/09/11 12:25:51;;;;;;;6.55;1.60;;;;;;;;;;5010902;28;20479;-71
2023/09/11 12:28:18;;;;;;;4.10;1.67;;;;;;;;;;5010569;28;20065;-71
2023/09/11 12:30:45;;;;;;;6.72;1.67;;;;;;;;;;5010501;28;20078;-72
2023/09/11 12:33:16;;;;;;;2.78;1.50;;;;;;;;;;5010997;28;20038;-72
2023/09/11 12:35:43;;;;;;;4.53;1.98;;;;;;;;;;5010988;28;20120;-70
2023/09/11 12:38:10;;;;;;;7.60;1.73;;;;;;;;;;5009467;28;20041;-71
2023/09/11 12:40:37;;;;;;;4.22;1.55;;;;;;;;;;5010773;28;20376;-72
2023/09/11 12:43:04;;;;;;;8.30;1.60;;;;;;;;;;5011338;28;20442;-71
2023/09/11 12:45:30;;;;;;;5.55;1.48;;;;;;;;;;5010803;28;20034;-71
2023/09/11 12:47:56;;;;;;;7.45;2.03;;;;;;;;;;5011191;28;20491;-72
2023/09/11 12:50:22;;;;;;;2.05;1.40;;;;;;;;;;5009642;28;20040;-72
2023/09/11 12:52:49;;;;;;;4.22;1.60;;;;;;;;;;5010580;28;20038;-71
2023/09/11 12:55:16;;;;;;;5.43;1.30;;;;;;;;;;5008481;28;20042;-70
2023/09/11 12:57:42;;;;;;;5.70;1.73;;;;;;;;;;5025266;28;20026;-71
2023/09/11 13:00:09;;;;;;;3.08;1.63;;;;;;;;;;5025019;28;20066;-70
2023/09/11 13:02:36;;;;;;;2.63;1.50;;;;;;;;;;5025340;28;20093;-70
2023/09/11 13:05:06;;;;;;;4.30;1.70;;;;;;;;;;5010272;28;20030;-70
2023/09/11 13:07:32;;;;;;;3.25;1.45;;;;;;;;;;5010000;28;20066;-69
2023/09/11 13:09:58;;;;;;;8.23;1.50;;;;;;;;;;5007031;28;20194;-70
2023/09/11 13:12:23;;;;;;;6.43;1.65;;;;;;;;;;4991969;28;20125;-69
2023/09/11 13:14:49;;;;;;;3.50;1.70;;;;;;;;;;5009919;28;20057;-72
2023/09/11 13:17:16;;;;;;;6.70;1.40;;;;;;;;;;5009061;28;20380;-69
2023/09/11 13:19:42;;;;;;;3.63;1.25;;;;;;;;;;5007535;28;20038;-69
2023/09/11 13:22:08;;;;;;;3.70;1.48;;;;;;;;;;5005872;28;20066;-69
2023/09/11 13:24:34;;;;;;;6.57;1.40;;;;;;;;;;5008683;28;20058;-70
2023/09/11 13:27:00;;;;;;;4.43;1.60;;;;;;;;;;5009207;28;20403;-70
2023/09/11 13:29:25;;;;;;;7.13;1.50;;;;;;;;;;5008862;28;20029;-70
2023/09/11 13:31:51;;;;;;;4.07;1.70;;;;;;;;;;5006112;28;20279;-70
2023/09/11 13:34:18;;;;;;;4.70;1.48;;;;;;;;;;5008992;28;20033;-69
2023/09/11 13:36:46;;;;;;;5.90;1.70;;;;;;;;;;5023241;28;20499;-69
2023/09/11 13:39:13;;;;;;;5.43;1.70;;;;;;;;;;5010175;28;20026;-70
2023/09/11 13:41:39;;;;;;;2.47;1.35;;;;;;;;;;5008686;28;20030;-70
2023/09/11 13:44:05;;;;;;;5.10;2.03;;;;;;;;;;5010108;28;20036;-69
2023/09/11 13:46:32;;;;;;;5.60;2.08;;;;;;;;;;5008823;28;20037;-70
2023/09/11 13:48:58;;;;;;;3.67;1.30;;;;;;;;;;5008834;28;20026;-72
2023/09/11 13:51:25;;;;;;;6.78;1.60;;;;;;;;;;5009056;28;20034;-71
2023/09/11 13:53:51;;;;;;;3.42;1.30;;;;;;;;;;5009885;28;20467;-72
2023/09/11 13:56:16;;;;;;;4.15;1.42;;;;;;;;;;5009110;28;20052;-72
2023/09/11 13:58:42;;;;;;;6.80;1.50;;;;;;;;;;5008668;28;20095;-71
2023/09/11 14:01:15;;;;;;;4.35;1.52;;;;;;;;;;5008210;28;20406;-71
2023/09/11 14:03:42;;;;;;;3.92;1.13;;;;;;;;;;5009328;28;20114;-73
2023/09/11 14:06:12;;;;;;;4.38;1.60;;;;;;;;;;4997846;28;20030;-72
2023/09/11 14:08:41;;;;;;;6.50;1.83;;;;;;;;;;5024641;28;20030;-70
2023/09/11 14:11:07;;;;;;;7.22;1.98;;;;;;;;;;5007136;28;20063;-71
2023/09/11 14:13:38;;;;;;;4.25;1.65;;;;;;;;;;5076398;28;20091;-69
2023/09/11 14:16:11;;;;;;;4.65;1.30;;;;;;;;;;5019970;27;20470;-70
2023/09/11 14:18:41;;;;;;;2.97;1.60;;;;;;;;;;5003806;28;20069;-70
2023/09/11 14:21:10;;;;;;;4.38;1.40;;;;;;;;;;5024618;28;20088;-69
2023/09/11 14:23:43;;;;;;;4.47;1.88;;;;;;;;;;5007268;28;20436;-70
2023/09/11 14:26:31;;;;;;;11.57;2.03;;;;;;;;;;5007460;28;20092;-70
2023/09/11 14:28:57;;;;;;;7.40;2.10;;;;;;;;;;5004521;28;20511;-69
2023/09/11 14:31:23;;;;;;;5.50;2.15;;;;;;;;;;5005039;28;20030;-69
2023/09/11 14:33:49;;;;;;;3.30;1.70;;;;;;;;;;5008619;28;20038;-70
2023/09/11 14:36:15;;;;;;;3.35;1.50;;;;;;;;;;5008792;28;20037;-70
2023/09/11 14:38:41;;;;;;;4.53;1.70;;;;;;;;;;5009027;28;20034;-70
2023/09/11 14:41:06;;;;;;;6.03;1.48;;;;;;;;;;5008595;28;20021;-69
2023/09/11 14:43:33;;;;;;;4.78;1.60;;;;;;;;;;5008061;28;20069;-70
2023/09/11 14:45:58;;;;;;;3.90;1.65;;;;;;;;;;5008767;28;20078;-70